sensor_id;sensor_type;location;lat;lon;timestamp;P1;durP1;ratioP1;P2;durP2;ratioP2
22026;SDS011;11177;50.966;10.070;2022-10-22T00:00:14;10.30;;;6.93;;
22026;SDS011;11177;50.966;10.070;2022-10-22T00:02:43;14.88;;;7.40;;
22026;SDS011;11177;50.966;10.070;2022-10-22T00:05:10;10.13;;;6.70;;
22026;SDS011;11177;50.966;10.070;2022-10-22T00:07:37;15.00;;;7.30;;
22026;SDS011;11177;50.966;10.070;2022-10-22T00:10:05;10.75;;;7.07;;
22026;SDS011;11177;50.966;10.070;2022-10-22T00:12:33;17.05;;;7.82;;
22026;SDS011;11177;50.966;10.070;2022-10-22T00:15:01;12.70;;;7.63;;
22026;SDS011;11177;50.966;10.070;2022-10-22T00:17:29;12.52;;;7.72;;
22026;SDS011;11177;50.966;10.070;2022-10-22T00:19:56;10.73;;;7.05;;
22026;SDS011;11177;50.966;10.070;2022-10-22T00:22:23;15.60;;;8.02;;
22026;SDS011;11177;50.966;10.070;2022-10-22T00:24:50;13.88;;;7.15;;
22026;SDS011;11177;50.966;10.070;2022-10-22T00:27:17;12.63;;;7.82;;
22026;SDS011;11177;50.966;10.070;2022-10-22T00:29:43;14.27;;;8.13;;
22026;SDS011;11177;50.966;10.070;2022-10-22T00:32:10;12.70;;;7.20;;
22026;SDS011;11177;50.966;10.070;2022-10-22T00:34:38;10.93;;;6.72;;
22026;SDS011;11177;50.966;10.070;2022-10-22T00:37:05;11.63;;;7.70;;
22026;SDS011;11177;50.966;10.070;2022-10-22T00:39:32;10.45;;;7.18;;
22026;SDS011;11177;50.966;10.070;2022-10-22T00:41:59;12.05;;;7.20;;
22026;SDS011;11177;50.966;10.070;2022-10-22T00:47:32;10.18;;;7.75;;
22026;SDS011;11177;50.966;10.070;2022-10-22T00:50:06;10.00;;;7.38;;
22026;SDS011;11177;50.966;10.070;2022-10-22T00:52:37;11.95;;;7.65;;
22026;SDS011;11177;50.966;10.070;2022-10-22T00:55:06;11.52;;;7.80;;
22026;SDS011;11177;50.966;10.070;2022-10-22T00:57:33;11.88;;;8.05;;
22026;SDS011;11177;50.966;10.070;2022-10-22T01:00:01;10.27;;;7.90;;
22026;SDS011;11177;50.966;10.070;2022-10-22T01:02:29;12.88;;;7.45;;
22026;SDS011;11177;50.966;10.070;2022-10-22T01:04:56;13.27;;;7.85;;
22026;SDS011;11177;50.966;10.070;2022-10-22T01:07:23;12.57;;;8.00;;
22026;SDS011;11177;50.966;10.070;2022-10-22T01:10:00;11.73;;;7.75;;
22026;SDS011;11177;50.966;10.070;2022-10-22T01:12:42;9.70;;;7.38;;
22026;SDS011;11177;50.966;10.070;2022-10-22T01:18:33;13.25;;;8.25;;
22026;SDS011;11177;50.966;10.070;2022-10-22T01:21:19;10.77;;;7.82;;
22026;SDS011;11177;50.966;10.070;2022-10-22T01:29:34;11.23;;;6.72;;
22026;SDS011;11177;50.966;10.070;2022-10-22T01:32:19;12.43;;;6.97;;
22026;SDS011;11177;50.966;10.070;2022-10-22T01:34:52;9.35;;;6.97;;
22026;SDS011;11177;50.966;10.070;2022-10-22T01:37:23;10.63;;;7.40;;
22026;SDS011;11177;50.966;10.070;2022-10-22T01:39:51;11.02;;;6.93;;
22026;SDS011;11177;50.966;10.070;2022-10-22T01:42:22;12.38;;;7.45;;
22026;SDS011;11177;50.966;10.070;2022-10-22T01:44:49;10.60;;;7.72;;
22026;SDS011;11177;50.966;10.070;2022-10-22T01:47:36;9.90;;;8.00;;
22026;SDS011;11177;50.966;10.070;2022-10-22T01:50:23;15.13;;;8.07;;
22026;SDS011;11177;50.966;10.070;2022-10-22T01:53:04;10.33;;;7.23;;
22026;SDS011;11177;50.966;10.070;2022-10-22T02:01:51;10.68;;;7.38;;
22026;SDS011;11177;50.966;10.070;2022-10-22T02:04:44;11.52;;;8.07;;
22026;SDS011;11177;50.966;10.070;2022-10-22T02:07:11;14.00;;;8.18;;
22026;SDS011;11177;50.966;10.070;2022-10-22T02:09:41;11.23;;;7.28;;
22026;SDS011;11177;50.966;10.070;2022-10-22T02:12:09;10.02;;;7.55;;
22026;SDS011;11177;50.966;10.070;2022-10-22T02:14:36;12.77;;;7.68;;
22026;SDS011;11177;50.966;10.070;2022-10-22T02:17:07;9.77;;;7.10;;
22026;SDS011;11177;50.966;10.070;2022-10-22T02:19:55;8.85;;;6.85;;
22026;SDS011;11177;50.966;10.070;2022-10-22T02:22:23;12.60;;;7.57;;
22026;SDS011;11177;50.966;10.070;2022-10-22T02:24:51;12.88;;;7.82;;
22026;SDS011;11177;50.966;10.070;2022-10-22T02:27:26;11.60;;;7.40;;
22026;SDS011;11177;50.966;10.070;2022-10-22T02:30:06;8.40;;;7.03;;
22026;SDS011;11177;50.966;10.070;2022-10-22T02:33:10;13.07;;;7.75;;
22026;SDS011;11177;50.966;10.070;2022-10-22T02:35:30;11.57;;;7.45;;
22026;SDS011;11177;50.966;10.070;2022-10-22T02:37:57;8.75;;;7.07;;
22026;SDS011;11177;50.966;10.070;2022-10-22T02:40:25;12.40;;;7.75;;
22026;SDS011;11177;50.966;10.070;2022-10-22T02:42:52;15.48;;;7.82;;
22026;SDS011;11177;50.966;10.070;2022-10-22T02:45:19;12.10;;;7.60;;
22026;SDS011;11177;50.966;10.070;2022-10-22T02:47:46;10.02;;;7.25;;
22026;SDS011;11177;50.966;10.070;2022-10-22T02:50:13;12.93;;;6.85;;
22026;SDS011;11177;50.966;10.070;2022-10-22T02:52:40;10.48;;;7.07;;
22026;SDS011;11177;50.966;10.070;2022-10-22T02:55:08;8.52;;;7.22;;
22026;SDS011;11177;50.966;10.070;2022-10-22T02:57:35;7.30;;;6.05;;
22026;SDS011;11177;50.966;10.070;2022-10-22T03:00:03;9.93;;;7.43;;
22026;SDS011;11177;50.966;10.070;2022-10-22T03:02:31;13.38;;;8.40;;
22026;SDS011;11177;50.966;10.070;2022-10-22T03:04:59;11.10;;;7.38;;
22026;SDS011;11177;50.966;10.070;2022-10-22T03:07:26;9.57;;;7.50;;
22026;SDS011;11177;50.966;10.070;2022-10-22T03:09:56;11.18;;;7.35;;
22026;SDS011;11177;50.966;10.070;2022-10-22T03:12:23;10.07;;;7.32;;
22026;SDS011;11177;50.966;10.070;2022-10-22T03:14:50;10.30;;;7.85;;
22026;SDS011;11177;50.966;10.070;2022-10-22T03:17:17;14.63;;;8.23;;
22026;SDS011;11177;50.966;10.070;2022-10-22T03:19:44;12.57;;;7.63;;
22026;SDS011;11177;50.966;10.070;2022-10-22T03:22:21;17.60;;;9.18;;
22026;SDS011;11177;50.966;10.070;2022-10-22T03:24:52;18.42;;;9.55;;
22026;SDS011;11177;50.966;10.070;2022-10-22T03:27:23;16.38;;;8.65;;
22026;SDS011;11177;50.966;10.070;2022-10-22T03:29:50;16.55;;;8.77;;
22026;SDS011;11177;50.966;10.070;2022-10-22T03:32:18;11.88;;;8.50;;
22026;SDS011;11177;50.966;10.070;2022-10-22T03:34:45;12.25;;;8.05;;
22026;SDS011;11177;50.966;10.070;2022-10-22T03:37:12;16.13;;;7.90;;
22026;SDS011;11177;50.966;10.070;2022-10-22T03:39:42;14.57;;;8.00;;
22026;SDS011;11177;50.966;10.070;2022-10-22T03:42:09;14.68;;;7.70;;
22026;SDS011;11177;50.966;10.070;2022-10-22T03:44:38;14.55;;;8.48;;
22026;SDS011;11177;50.966;10.070;2022-10-22T03:47:06;11.02;;;8.13;;
22026;SDS011;11177;50.966;10.070;2022-10-22T03:49:33;14.50;;;8.65;;
22026;SDS011;11177;50.966;10.070;2022-10-22T03:52:04;13.00;;;8.70;;
22026;SDS011;11177;50.966;10.070;2022-10-22T03:54:35;14.07;;;8.25;;
22026;SDS011;11177;50.966;10.070;2022-10-22T03:57:22;13.63;;;8.48;;
22026;SDS011;11177;50.966;10.070;2022-10-22T03:59:49;15.77;;;9.25;;
22026;SDS011;11177;50.966;10.070;2022-10-22T04:02:16;17.75;;;9.35;;
22026;SDS011;11177;50.966;10.070;2022-10-22T04:04:44;15.85;;;9.05;;
22026;SDS011;11177;50.966;10.070;2022-10-22T04:07:11;16.67;;;10.05;;
22026;SDS011;11177;50.966;10.070;2022-10-22T04:09:38;16.80;;;9.23;;
22026;SDS011;11177;50.966;10.070;2022-10-22T04:12:05;15.10;;;9.40;;
22026;SDS011;11177;50.966;10.070;2022-10-22T04:14:33;10.98;;;8.65;;
22026;SDS011;11177;50.966;10.070;2022-10-22T04:17:01;15.13;;;9.32;;
22026;SDS011;11177;50.966;10.070;2022-10-22T04:19:28;15.38;;;9.07;;
22026;SDS011;11177;50.966;10.070;2022-10-22T04:21:58;11.48;;;8.18;;
22026;SDS011;11177;50.966;10.070;2022-10-22T04:24:26;14.68;;;8.73;;
22026;SDS011;11177;50.966;10.070;2022-10-22T04:26:53;11.02;;;8.70;;
22026;SDS011;11177;50.966;10.070;2022-10-22T04:29:21;12.38;;;8.15;;
22026;SDS011;11177;50.966;10.070;2022-10-22T04:31:49;15.00;;;8.48;;
22026;SDS011;11177;50.966;10.070;2022-10-22T04:34:16;12.65;;;8.38;;
22026;SDS011;11177;50.966;10.070;2022-10-22T04:36:43;14.93;;;7.95;;
22026;SDS011;11177;50.966;10.070;2022-10-22T04:39:10;11.70;;;8.13;;
22026;SDS011;11177;50.966;10.070;2022-10-22T04:41:37;8.30;;;7.32;;
22026;SDS011;11177;50.966;10.070;2022-10-22T04:44:05;9.18;;;7.00;;
22026;SDS011;11177;50.966;10.070;2022-10-22T04:46:41;8.95;;;5.03;;
22026;SDS011;11177;50.966;10.070;2022-10-22T04:49:08;8.93;;;4.80;;
22026;SDS011;11177;50.966;10.070;2022-10-22T04:51:35;9.55;;;4.30;;
22026;SDS011;11177;50.966;10.070;2022-10-22T04:54:02;5.95;;;4.05;;
22026;SDS011;11177;50.966;10.070;2022-10-22T04:56:30;9.27;;;4.18;;
22026;SDS011;11177;50.966;10.070;2022-10-22T04:59:01;4.75;;;3.58;;
22026;SDS011;11177;50.966;10.070;2022-10-22T05:01:37;7.55;;;4.15;;
22026;SDS011;11177;50.966;10.070;2022-10-22T05:04:13;5.75;;;3.55;;
22026;SDS011;11177;50.966;10.070;2022-10-22T05:06:41;6.95;;;3.03;;
22026;SDS011;11177;50.966;10.070;2022-10-22T05:09:15;5.30;;;2.60;;
22026;SDS011;11177;50.966;10.070;2022-10-22T05:11:44;6.60;;;2.15;;
22026;SDS011;11177;50.966;10.070;2022-10-22T05:14:18;3.72;;;2.10;;
22026;SDS011;11177;50.966;10.070;2022-10-22T05:16:47;3.92;;;2.20;;
22026;SDS011;11177;50.966;10.070;2022-10-22T05:19:16;4.03;;;1.80;;
22026;SDS011;11177;50.966;10.070;2022-10-22T05:21:44;4.88;;;1.92;;
22026;SDS011;11177;50.966;10.070;2022-10-22T05:24:14;2.95;;;1.75;;
22026;SDS011;11177;50.966;10.070;2022-10-22T05:26:41;3.47;;;1.80;;
22026;SDS011;11177;50.966;10.070;2022-10-22T05:29:08;6.45;;;1.67;;
22026;SDS011;11177;50.966;10.070;2022-10-22T05:31:35;4.43;;;1.42;;
22026;SDS011;11177;50.966;10.070;2022-10-22T05:34:02;3.88;;;1.92;;
22026;SDS011;11177;50.966;10.070;2022-10-22T05:36:29;2.65;;;1.60;;
22026;SDS011;11177;50.966;10.070;2022-10-22T05:38:56;2.00;;;1.88;;
22026;SDS011;11177;50.966;10.070;2022-10-22T05:41:24;2.95;;;2.05;;
22026;SDS011;11177;50.966;10.070;2022-10-22T05:43:56;2.13;;;1.73;;
22026;SDS011;11177;50.966;10.070;2022-10-22T05:46:26;6.57;;;1.95;;
22026;SDS011;11177;50.966;10.070;2022-10-22T05:48:56;3.30;;;2.00;;
22026;SDS011;11177;50.966;10.070;2022-10-22T05:51:28;5.75;;;2.08;;
22026;SDS011;11177;50.966;10.070;2022-10-22T05:53:57;5.18;;;2.08;;
22026;SDS011;11177;50.966;10.070;2022-10-22T05:56:26;7.32;;;2.15;;
22026;SDS011;11177;50.966;10.070;2022-10-22T05:58:55;5.47;;;2.17;;
22026;SDS011;11177;50.966;10.070;2022-10-22T06:01:23;10.90;;;2.50;;
22026;SDS011;11177;50.966;10.070;2022-10-22T06:03:56;4.72;;;2.40;;
22026;SDS011;11177;50.966;10.070;2022-10-22T06:06:31;3.50;;;2.35;;
22026;SDS011;11177;50.966;10.070;2022-10-22T06:09:05;4.93;;;2.47;;
22026;SDS011;11177;50.966;10.070;2022-10-22T06:11:35;6.20;;;2.58;;
22026;SDS011;11177;50.966;10.070;2022-10-22T06:14:02;3.90;;;2.40;;
22026;SDS011;11177;50.966;10.070;2022-10-22T06:16:30;5.45;;;3.10;;
22026;SDS011;11177;50.966;10.070;2022-10-22T06:18:57;3.08;;;1.52;;
22026;SDS011;11177;50.966;10.070;2022-10-22T06:21:28;5.90;;;1.50;;
22026;SDS011;11177;50.966;10.070;2022-10-22T06:23:56;4.75;;;1.50;;
22026;SDS011;11177;50.966;10.070;2022-10-22T06:26:24;6.25;;;2.47;;
22026;SDS011;11177;50.966;10.070;2022-10-22T06:28:51;5.60;;;2.20;;
22026;SDS011;11177;50.966;10.070;2022-10-22T06:31:18;3.85;;;2.08;;
22026;SDS011;11177;50.966;10.070;2022-10-22T06:33:45;5.05;;;2.10;;
22026;SDS011;11177;50.966;10.070;2022-10-22T06:36:14;5.82;;;2.90;;
22026;SDS011;11177;50.966;10.070;2022-10-22T06:38:42;13.20;;;5.00;;
22026;SDS011;11177;50.966;10.070;2022-10-22T06:41:13;9.15;;;4.10;;
22026;SDS011;11177;50.966;10.070;2022-10-22T06:43:42;12.05;;;3.97;;
22026;SDS011;11177;50.966;10.070;2022-10-22T06:46:13;5.65;;;3.10;;
22026;SDS011;11177;50.966;10.070;2022-10-22T06:48:56;4.07;;;2.30;;
22026;SDS011;11177;50.966;10.070;2022-10-22T06:51:25;3.35;;;2.70;;
22026;SDS011;11177;50.966;10.070;2022-10-22T06:53:53;3.67;;;2.80;;
22026;SDS011;11177;50.966;10.070;2022-10-22T06:56:21;4.35;;;3.13;;
22026;SDS011;11177;50.966;10.070;2022-10-22T06:58:49;6.75;;;2.95;;
22026;SDS011;11177;50.966;10.070;2022-10-22T07:01:21;4.28;;;2.80;;
22026;SDS011;11177;50.966;10.070;2022-10-22T07:03:50;3.58;;;2.10;;
22026;SDS011;11177;50.966;10.070;2022-10-22T07:06:17;3.65;;;1.85;;
22026;SDS011;11177;50.966;10.070;2022-10-22T07:08:45;5.40;;;1.90;;
22026;SDS011;11177;50.966;10.070;2022-10-22T07:11:13;3.28;;;1.90;;
22026;SDS011;11177;50.966;10.070;2022-10-22T07:13:52;7.07;;;1.70;;
22026;SDS011;11177;50.966;10.070;2022-10-22T07:16:23;4.93;;;3.20;;
22026;SDS011;11177;50.966;10.070;2022-10-22T07:18:57;12.20;;;7.25;;
22026;SDS011;11177;50.966;10.070;2022-10-22T07:21:25;16.08;;;6.60;;
22026;SDS011;11177;50.966;10.070;2022-10-22T07:23:52;10.15;;;4.85;;
22026;SDS011;11177;50.966;10.070;2022-10-22T07:26:19;8.75;;;3.50;;
22026;SDS011;11177;50.966;10.070;2022-10-22T07:28:46;6.70;;;3.25;;
22026;SDS011;11177;50.966;10.070;2022-10-22T07:31:14;6.65;;;3.25;;
22026;SDS011;11177;50.966;10.070;2022-10-22T07:33:41;5.65;;;2.60;;
22026;SDS011;11177;50.966;10.070;2022-10-22T07:36:09;5.18;;;2.60;;
22026;SDS011;11177;50.966;10.070;2022-10-22T07:38:44;5.57;;;2.78;;
22026;SDS011;11177;50.966;10.070;2022-10-22T07:41:15;3.00;;;2.10;;
22026;SDS011;11177;50.966;10.070;2022-10-22T07:43:43;9.45;;;2.92;;
22026;SDS011;11177;50.966;10.070;2022-10-22T07:46:10;4.00;;;2.17;;
22026;SDS011;11177;50.966;10.070;2022-10-22T07:48:37;4.75;;;2.20;;
22026;SDS011;11177;50.966;10.070;2022-10-22T07:51:04;3.38;;;2.30;;
22026;SDS011;11177;50.966;10.070;2022-10-22T07:53:32;2.67;;;2.40;;
22026;SDS011;11177;50.966;10.070;2022-10-22T07:55:59;5.35;;;3.40;;
22026;SDS011;11177;50.966;10.070;2022-10-22T07:58:26;10.20;;;3.33;;
22026;SDS011;11177;50.966;10.070;2022-10-22T08:00:56;5.88;;;3.25;;
22026;SDS011;11177;50.966;10.070;2022-10-22T08:03:23;7.25;;;4.20;;
22026;SDS011;11177;50.966;10.070;2022-10-22T08:05:50;6.63;;;4.00;;
22026;SDS011;11177;50.966;10.070;2022-10-22T08:08:18;7.22;;;4.25;;
22026;SDS011;11177;50.966;10.070;2022-10-22T08:10:46;5.32;;;4.07;;
22026;SDS011;11177;50.966;10.070;2022-10-22T08:13:14;9.50;;;4.82;;
22026;SDS011;11177;50.966;10.070;2022-10-22T08:15:42;9.07;;;4.28;;
22026;SDS011;11177;50.966;10.070;2022-10-22T08:18:10;5.57;;;4.20;;
22026;SDS011;11177;50.966;10.070;2022-10-22T08:20:36;8.80;;;3.35;;
22026;SDS011;11177;50.966;10.070;2022-10-22T08:23:03;8.00;;;3.83;;
22026;SDS011;11177;50.966;10.070;2022-10-22T08:25:30;7.95;;;4.20;;
22026;SDS011;11177;50.966;10.070;2022-10-22T08:27:57;6.97;;;4.32;;
22026;SDS011;11177;50.966;10.070;2022-10-22T08:30:24;14.27;;;5.47;;
22026;SDS011;11177;50.966;10.070;2022-10-22T08:32:53;11.30;;;4.38;;
22026;SDS011;11177;50.966;10.070;2022-10-22T08:35:20;10.02;;;4.60;;
22026;SDS011;11177;50.966;10.070;2022-10-22T08:37:47;6.70;;;3.10;;
22026;SDS011;11177;50.966;10.070;2022-10-22T08:40:18;11.15;;;3.50;;
22026;SDS011;11177;50.966;10.070;2022-10-22T08:43:01;4.57;;;3.13;;
22026;SDS011;11177;50.966;10.070;2022-10-22T08:45:53;4.75;;;3.05;;
22026;SDS011;11177;50.966;10.070;2022-10-22T08:48:52;8.48;;;3.28;;
22026;SDS011;11177;50.966;10.070;2022-10-22T08:51:22;6.82;;;3.55;;
22026;SDS011;11177;50.966;10.070;2022-10-22T08:54:05;5.80;;;2.78;;
22026;SDS011;11177;50.966;10.070;2022-10-22T08:56:36;5.80;;;2.90;;
22026;SDS011;11177;50.966;10.070;2022-10-22T08:59:20;7.07;;;2.90;;
22026;SDS011;11177;50.966;10.070;2022-10-22T09:01:50;9.85;;;2.63;;
22026;SDS011;11177;50.966;10.070;2022-10-22T09:04:21;5.05;;;2.60;;
22026;SDS011;11177;50.966;10.070;2022-10-22T09:06:52;8.35;;;2.58;;
22026;SDS011;11177;50.966;10.070;2022-10-22T09:09:21;4.55;;;2.70;;
22026;SDS011;11177;50.966;10.070;2022-10-22T09:11:50;7.45;;;3.42;;
22026;SDS011;11177;50.966;10.070;2022-10-22T09:14:18;4.70;;;3.20;;
22026;SDS011;11177;50.966;10.070;2022-10-22T09:17:33;7.63;;;2.85;;
22026;SDS011;11177;50.966;10.070;2022-10-22T09:20:03;5.70;;;3.00;;
22026;SDS011;11177;50.966;10.070;2022-10-22T09:25:45;9.60;;;3.70;;
22026;SDS011;11177;50.966;10.070;2022-10-22T09:28:14;5.85;;;3.83;;
22026;SDS011;11177;50.966;10.070;2022-10-22T09:30:41;6.55;;;3.65;;
22026;SDS011;11177;50.966;10.070;2022-10-22T09:33:12;6.75;;;3.70;;
22026;SDS011;11177;50.966;10.070;2022-10-22T09:36:01;15.38;;;3.75;;
22026;SDS011;11177;50.966;10.070;2022-10-22T09:38:32;7.00;;;4.35;;
22026;SDS011;11177;50.966;10.070;2022-10-22T09:41:00;9.07;;;4.07;;
22026;SDS011;11177;50.966;10.070;2022-10-22T09:43:29;8.23;;;5.03;;
22026;SDS011;11177;50.966;10.070;2022-10-22T09:45:58;5.20;;;3.90;;
22026;SDS011;11177;50.966;10.070;2022-10-22T09:48:27;7.70;;;3.83;;
22026;SDS011;11177;50.966;10.070;2022-10-22T09:51:10;6.10;;;3.42;;
22026;SDS011;11177;50.966;10.070;2022-10-22T09:53:41;9.00;;;3.20;;
22026;SDS011;11177;50.966;10.070;2022-10-22T09:56:16;4.38;;;3.10;;
22026;SDS011;11177;50.966;10.070;2022-10-22T09:58:50;7.00;;;3.55;;
22026;SDS011;11177;50.966;10.070;2022-10-22T10:01:19;4.75;;;3.05;;
22026;SDS011;11177;50.966;10.070;2022-10-22T10:03:49;3.88;;;2.80;;
22026;SDS011;11177;50.966;10.070;2022-10-22T10:06:17;7.07;;;3.20;;
22026;SDS011;11177;50.966;10.070;2022-10-22T10:08:45;5.72;;;2.90;;
22026;SDS011;11177;50.966;10.070;2022-10-22T10:11:25;11.50;;;3.30;;
22026;SDS011;11177;50.966;10.070;2022-10-22T10:14:01;7.32;;;3.03;;
22026;SDS011;11177;50.966;10.070;2022-10-22T10:16:42;7.30;;;2.70;;
22026;SDS011;11177;50.966;10.070;2022-10-22T10:19:29;6.15;;;2.75;;
22026;SDS011;11177;50.966;10.070;2022-10-22T10:22:23;5.82;;;3.10;;
22026;SDS011;11177;50.966;10.070;2022-10-22T10:25:02;6.18;;;2.90;;
22026;SDS011;11177;50.966;10.070;2022-10-22T10:27:42;7.32;;;3.28;;
22026;SDS011;11177;50.966;10.070;2022-10-22T10:30:14;5.35;;;3.03;;
22026;SDS011;11177;50.966;10.070;2022-10-22T10:35:57;6.10;;;2.63;;
22026;SDS011;11177;50.966;10.070;2022-10-22T10:38:47;6.20;;;3.17;;
22026;SDS011;11177;50.966;10.070;2022-10-22T10:41:35;10.57;;;3.60;;
22026;SDS011;11177;50.966;10.070;2022-10-22T10:44:16;8.43;;;3.78;;
22026;SDS011;11177;50.966;10.070;2022-10-22T10:50:47;7.22;;;3.60;;
22026;SDS011;11177;50.966;10.070;2022-10-22T10:53:35;8.52;;;3.10;;
22026;SDS011;11177;50.966;10.070;2022-10-22T10:56:41;8.97;;;3.30;;
22026;SDS011;11177;50.966;10.070;2022-10-22T11:02:36;7.03;;;3.28;;
22026;SDS011;11177;50.966;10.070;2022-10-22T11:05:43;5.80;;;2.80;;
22026;SDS011;11177;50.966;10.070;2022-10-22T11:08:15;5.75;;;2.97;;
22026;SDS011;11177;50.966;10.070;2022-10-22T11:10:46;5.75;;;2.72;;
22026;SDS011;11177;50.966;10.070;2022-10-22T11:19:26;3.03;;;2.15;;
22026;SDS011;11177;50.966;10.070;2022-10-22T11:22:21;3.30;;;2.40;;
22026;SDS011;11177;50.966;10.070;2022-10-22T11:25:05;5.32;;;2.55;;
22026;SDS011;11177;50.966;10.070;2022-10-22T11:27:44;6.72;;;2.20;;
22026;SDS011;11177;50.966;10.070;2022-10-22T11:30:18;8.18;;;2.42;;
22026;SDS011;11177;50.966;10.070;2022-10-22T11:32:56;8.43;;;2.60;;
22026;SDS011;11177;50.966;10.070;2022-10-22T11:35:34;7.05;;;2.50;;
22026;SDS011;11177;50.966;10.070;2022-10-22T11:38:05;5.38;;;2.30;;
22026;SDS011;11177;50.966;10.070;2022-10-22T11:40:36;6.47;;;2.63;;
22026;SDS011;11177;50.966;10.070;2022-10-22T11:43:05;5.75;;;2.42;;
22026;SDS011;11177;50.966;10.070;2022-10-22T11:45:34;6.80;;;3.20;;
22026;SDS011;11177;50.966;10.070;2022-10-22T11:48:13;7.78;;;2.55;;
22026;SDS011;11177;50.966;10.070;2022-10-22T11:50:46;6.90;;;1.92;;
22026;SDS011;11177;50.966;10.070;2022-10-22T11:55:56;9.63;;;1.95;;
22026;SDS011;11177;50.966;10.070;2022-10-22T11:58:41;6.68;;;1.80;;
22026;SDS011;11177;50.966;10.070;2022-10-22T12:04:14;4.22;;;1.60;;
22026;SDS011;11177;50.966;10.070;2022-10-22T12:09:18;7.65;;;2.00;;
22026;SDS011;11177;50.966;10.070;2022-10-22T12:11:49;5.80;;;2.00;;
22026;SDS011;11177;50.966;10.070;2022-10-22T12:19:31;6.18;;;2.47;;
22026;SDS011;11177;50.966;10.070;2022-10-22T12:22:12;3.22;;;1.90;;
22026;SDS011;11177;50.966;10.070;2022-10-22T12:24:53;7.57;;;2.20;;
22026;SDS011;11177;50.966;10.070;2022-10-22T12:27:25;7.00;;;2.05;;
22026;SDS011;11177;50.966;10.070;2022-10-22T12:29:53;4.20;;;2.13;;
22026;SDS011;11177;50.966;10.070;2022-10-22T12:32:22;6.90;;;1.60;;
22026;SDS011;11177;50.966;10.070;2022-10-22T12:34:50;5.40;;;1.52;;
22026;SDS011;11177;50.966;10.070;2022-10-22T12:37:17;4.90;;;1.67;;
22026;SDS011;11177;50.966;10.070;2022-10-22T12:39:45;5.68;;;2.55;;
22026;SDS011;11177;50.966;10.070;2022-10-22T12:42:13;6.78;;;2.47;;
22026;SDS011;11177;50.966;10.070;2022-10-22T12:44:44;9.23;;;2.50;;
22026;SDS011;11177;50.966;10.070;2022-10-22T12:47:15;4.10;;;2.20;;
22026;SDS011;11177;50.966;10.070;2022-10-22T12:49:47;5.82;;;1.58;;
22026;SDS011;11177;50.966;10.070;2022-10-22T12:52:16;5.43;;;1.40;;
22026;SDS011;11177;50.966;10.070;2022-10-22T12:54:46;5.47;;;2.08;;
22026;SDS011;11177;50.966;10.070;2022-10-22T12:57:17;6.00;;;3.33;;
22026;SDS011;11177;50.966;10.070;2022-10-22T12:59:46;5.53;;;2.42;;
22026;SDS011;11177;50.966;10.070;2022-10-22T13:02:20;6.47;;;1.58;;
22026;SDS011;11177;50.966;10.070;2022-10-22T13:08:16;3.85;;;1.40;;
22026;SDS011;11177;50.966;10.070;2022-10-22T13:10:50;2.20;;;1.30;;
22026;SDS011;11177;50.966;10.070;2022-10-22T13:13:31;9.20;;;1.30;;
22026;SDS011;11177;50.966;10.070;2022-10-22T13:16:16;9.70;;;1.40;;
22026;SDS011;11177;50.966;10.070;2022-10-22T13:18:53;3.13;;;1.30;;
22026;SDS011;11177;50.966;10.070;2022-10-22T13:21:33;5.45;;;1.30;;
22026;SDS011;11177;50.966;10.070;2022-10-22T13:24:18;9.85;;;1.33;;
22026;SDS011;11177;50.966;10.070;2022-10-22T13:26:49;6.55;;;1.13;;
22026;SDS011;11177;50.966;10.070;2022-10-22T13:29:17;3.55;;;1.20;;
22026;SDS011;11177;50.966;10.070;2022-10-22T13:31:48;4.45;;;1.30;;
22026;SDS011;11177;50.966;10.070;2022-10-22T13:34:17;2.92;;;1.38;;
22026;SDS011;11177;50.966;10.070;2022-10-22T13:36:46;4.03;;;1.38;;
22026;SDS011;11177;50.966;10.070;2022-10-22T13:39:17;4.35;;;1.42;;
22026;SDS011;11177;50.966;10.070;2022-10-22T13:41:45;5.28;;;1.58;;
22026;SDS011;11177;50.966;10.070;2022-10-22T13:44:13;6.43;;;2.13;;
22026;SDS011;11177;50.966;10.070;2022-10-22T13:46:40;4.22;;;1.50;;
22026;SDS011;11177;50.966;10.070;2022-10-22T13:49:15;4.03;;;1.30;;
22026;SDS011;11177;50.966;10.070;2022-10-22T13:51:43;3.30;;;1.23;;
22026;SDS011;11177;50.966;10.070;2022-10-22T13:54:13;4.63;;;1.45;;
22026;SDS011;11177;50.966;10.070;2022-10-22T13:56:41;4.93;;;1.20;;
22026;SDS011;11177;50.966;10.070;2022-10-22T13:59:08;3.85;;;1.27;;
22026;SDS011;11177;50.966;10.070;2022-10-22T14:01:36;5.30;;;1.63;;
22026;SDS011;11177;50.966;10.070;2022-10-22T14:04:03;4.53;;;1.35;;
22026;SDS011;11177;50.966;10.070;2022-10-22T14:06:31;6.00;;;1.67;;
22026;SDS011;11177;50.966;10.070;2022-10-22T14:09:19;5.75;;;1.58;;
22026;SDS011;11177;50.966;10.070;2022-10-22T14:11:46;8.55;;;1.30;;
22026;SDS011;11177;50.966;10.070;2022-10-22T14:14:13;3.67;;;2.00;;
22026;SDS011;11177;50.966;10.070;2022-10-22T14:16:42;5.57;;;1.50;;
22026;SDS011;11177;50.966;10.070;2022-10-22T14:19:13;5.18;;;1.40;;
22026;SDS011;11177;50.966;10.070;2022-10-22T14:21:41;5.28;;;1.50;;
22026;SDS011;11177;50.966;10.070;2022-10-22T14:24:08;3.90;;;1.23;;
22026;SDS011;11177;50.966;10.070;2022-10-22T14:26:38;4.10;;;1.52;;
22026;SDS011;11177;50.966;10.070;2022-10-22T14:29:05;9.73;;;1.13;;
22026;SDS011;11177;50.966;10.070;2022-10-22T14:31:38;8.75;;;1.90;;
22026;SDS011;11177;50.966;10.070;2022-10-22T14:34:05;11.40;;;1.80;;
22026;SDS011;11177;50.966;10.070;2022-10-22T14:36:32;7.65;;;1.75;;
22026;SDS011;11177;50.966;10.070;2022-10-22T14:38:59;9.68;;;2.00;;
22026;SDS011;11177;50.966;10.070;2022-10-22T14:41:26;6.03;;;1.77;;
22026;SDS011;11177;50.966;10.070;2022-10-22T14:43:54;9.48;;;2.53;;
22026;SDS011;11177;50.966;10.070;2022-10-22T14:46:21;6.40;;;1.35;;
22026;SDS011;11177;50.966;10.070;2022-10-22T14:48:48;4.00;;;1.15;;
22026;SDS011;11177;50.966;10.070;2022-10-22T14:51:16;9.90;;;1.77;;
22026;SDS011;11177;50.966;10.070;2022-10-22T14:53:43;7.28;;;2.28;;
22026;SDS011;11177;50.966;10.070;2022-10-22T14:56:11;7.93;;;2.17;;
22026;SDS011;11177;50.966;10.070;2022-10-22T14:58:39;5.78;;;2.17;;
22026;SDS011;11177;50.966;10.070;2022-10-22T15:01:06;10.68;;;2.90;;
22026;SDS011;11177;50.966;10.070;2022-10-22T15:03:34;9.93;;;4.22;;
22026;SDS011;11177;50.966;10.070;2022-10-22T15:06:01;11.00;;;3.83;;
22026;SDS011;11177;50.966;10.070;2022-10-22T15:08:28;9.07;;;3.20;;
22026;SDS011;11177;50.966;10.070;2022-10-22T15:10:59;6.00;;;1.70;;
22026;SDS011;11177;50.966;10.070;2022-10-22T15:13:27;5.05;;;1.58;;
22026;SDS011;11177;50.966;10.070;2022-10-22T15:15:55;7.93;;;2.00;;
22026;SDS011;11177;50.966;10.070;2022-10-22T15:18:22;3.97;;;1.70;;
22026;SDS011;11177;50.966;10.070;2022-10-22T15:20:53;6.78;;;1.75;;
22026;SDS011;11177;50.966;10.070;2022-10-22T15:23:28;5.38;;;1.55;;
22026;SDS011;11177;50.966;10.070;2022-10-22T15:25:55;4.68;;;1.80;;
22026;SDS011;11177;50.966;10.070;2022-10-22T15:28:22;2.95;;;1.80;;
22026;SDS011;11177;50.966;10.070;2022-10-22T15:30:54;10.27;;;2.95;;
22026;SDS011;11177;50.966;10.070;2022-10-22T15:33:22;3.58;;;1.80;;
22026;SDS011;11177;50.966;10.070;2022-10-22T15:35:49;6.55;;;2.20;;
22026;SDS011;11177;50.966;10.070;2022-10-22T15:38:15;6.63;;;2.47;;
22026;SDS011;11177;50.966;10.070;2022-10-22T15:40:42;6.15;;;2.08;;
22026;SDS011;11177;50.966;10.070;2022-10-22T15:43:10;6.68;;;2.50;;
22026;SDS011;11177;50.966;10.070;2022-10-22T15:45:37;11.52;;;2.90;;
22026;SDS011;11177;50.966;10.070;2022-10-22T15:48:04;9.25;;;2.15;;